Airfield :
LOGIN :

Register | Disclaimer

   EN    FR    IT 

 










Legend :    VFR   Marginal VFR   IFR   Intensive IFR   Very Intensive IFR
Visi :
Ceiling :
>= 8 km
>= 3000ft
5 to 8 km
1000 to 3000 ft
1500m to 5 km
500 to 1000 ft
800 to 1500m
200 to 500 ft
< 800m
< 200 ft
Symbols :   Thunderstorms  Fog  Heavy snow  Heavy precipitations  Wind > 20 kt
SIGMETs :     Misc.  Thunderstorms  Icing  Turbulence  Mountain Waves  Volcanic Ashes






- Airport Elevation : 63 ft
- IATA code : BZM


EHWO - Woensdrecht Airbase

CURRENT METAR :
  • 150855Z AUTO 21005KT 170V240 9999 OVC110 22/17 Q1004 BLU NOSIG

EXPIRED METARs :
  • 150825Z AUTO 22004KT 190V250 9999 OVC100 21/18 Q1004 BLU NOSIG
  • 150755Z AUTO 21004KT 9999 OVC100 21/17 Q1004 BLU NOSIG
  • 150735Z AUTO 21003KT 190V260 9999 OVC100 21/17 Q1004 BLU NOSIG
  • 150725Z AUTO 21003KT 180V240 9999 OVC100 20/18 Q1004 BLU NOSIG
  • 150700Z AUTO 22003KT 200V270 9999 FEW095 OVC110 20/18 Q1004 BLU NOSIG
  • 150625Z AUTO VRB02KT 9999 OVC120 19/18 Q1003 BLU
  • 150555Z AUTO 19003KT 080V210 9999 FEW015CB OVC100 18/17 Q1003 BLU

TAF TAF EHWO
Valid from the 15 at 05:00 until the 15 at 17:00 UTC


150433Z 1505/1517 22005KT CAVOK
TEMPO 1505/1507 24010G20KT 3000 SHRA TSRA SCT040 SCT070CB
PROB40
TEMPO 1510/1517 23010G25KT 3000 SHRA TSRA SCT020 SCT030CB



MET'MAP, your aeronautical weather chart ! - Copyright ORBIFLY December 2007 - Disclaimer

ORBIFLY MET'MAP TEAM :

Programming & Development : Alexandra Zaïnal
Original concept : Baudouin d'Aumeries
Technical & hardware support : Manuel Goepfert
Assistance : Marc-Olivier Méhu




SOURCES & CREDITS :

   NOAA